sensor_id;sensor_type;location;lat;lon;timestamp;pressure;altitude;pressure_sealevel;temperature;humidity
73600;BME280;61877;48.246;9.220;2022-10-14T00:00:32;94355.59;;;10.83;97.17
73600;BME280;61877;48.246;9.220;2022-10-14T00:02:58;94364.00;;;10.82;97.38
73600;BME280;61877;48.246;9.220;2022-10-14T00:05:23;94361.63;;;10.80;97.29
73600;BME280;61877;48.246;9.220;2022-10-14T00:07:50;94363.19;;;10.81;97.35
73600;BME280;61877;48.246;9.220;2022-10-14T00:10:15;94367.81;;;10.81;97.50
73600;BME280;61877;48.246;9.220;2022-10-14T00:12:41;94363.19;;;10.81;97.59
73600;BME280;61877;48.246;9.220;2022-10-14T00:15:07;94366.34;;;10.83;97.81
73600;BME280;61877;48.246;9.220;2022-10-14T00:17:33;94370.28;;;10.86;97.71
73600;BME280;61877;48.246;9.220;2022-10-14T00:19:58;94372.63;;;10.87;98.10
73600;BME280;61877;48.246;9.220;2022-10-14T00:22:24;94372.63;;;10.87;98.21
73600;BME280;61877;48.246;9.220;2022-10-14T00:24:51;94369.28;;;10.90;97.97
73600;BME280;61877;48.246;9.220;2022-10-14T00:27:17;94378.13;;;10.91;97.88
73600;BME280;61877;48.246;9.220;2022-10-14T00:29:42;94371.28;;;10.93;97.99
73600;BME280;61877;48.246;9.220;2022-10-14T00:32:08;94367.59;;;10.98;97.73
73600;BME280;61877;48.246;9.220;2022-10-14T00:34:34;94365.72;;;10.98;97.60
73600;BME280;61877;48.246;9.220;2022-10-14T00:37:00;94356.56;;;10.99;97.52
73600;BME280;61877;48.246;9.220;2022-10-14T00:39:25;94357.78;;;11.02;97.63
73600;BME280;61877;48.246;9.220;2022-10-14T00:41:52;94358.56;;;11.02;97.48
73600;BME280;61877;48.246;9.220;2022-10-14T00:47:20;94360.81;;;11.00;97.85
73600;BME280;61877;48.246;9.220;2022-10-14T00:49:45;94360.69;;;10.97;97.64
73600;BME280;61877;48.246;9.220;2022-10-14T00:52:14;94362.22;;;10.98;97.76
73600;BME280;61877;48.246;9.220;2022-10-14T00:54:44;94357.53;;;10.95;97.90
73600;BME280;61877;48.246;9.220;2022-10-14T00:57:11;94350.28;;;10.95;97.71
73600;BME280;61877;48.246;9.220;2022-10-14T00:59:38;94358.19;;;10.92;97.62
73600;BME280;61877;48.246;9.220;2022-10-14T01:02:03;94343.56;;;10.89;97.69
73600;BME280;61877;48.246;9.220;2022-10-14T01:04:29;94347.00;;;10.90;98.17
73600;BME280;61877;48.246;9.220;2022-10-14T01:07:02;94345.31;;;10.85;97.72
73600;BME280;61877;48.246;9.220;2022-10-14T01:09:35;94351.81;;;10.84;97.84
73600;BME280;61877;48.246;9.220;2022-10-14T01:12:08;94349.13;;;10.84;98.18
73600;BME280;61877;48.246;9.220;2022-10-14T01:14:44;94352.91;;;10.83;98.26
73600;BME280;61877;48.246;9.220;2022-10-14T01:17:17;94347.09;;;10.81;98.43
73600;BME280;61877;48.246;9.220;2022-10-14T01:20:06;94348.22;;;10.80;98.61
73600;BME280;61877;48.246;9.220;2022-10-14T01:22:44;94348.22;;;10.80;98.55
73600;BME280;61877;48.246;9.220;2022-10-14T01:25:16;94341.63;;;10.78;98.45
73600;BME280;61877;48.246;9.220;2022-10-14T01:27:55;94346.22;;;10.77;98.23
73600;BME280;61877;48.246;9.220;2022-10-14T01:30:29;94349.56;;;10.74;98.24
73600;BME280;61877;48.246;9.220;2022-10-14T01:33:04;94343.06;;;10.75;98.42
73600;BME280;61877;48.246;9.220;2022-10-14T01:35:38;94331.53;;;10.75;98.50
73600;BME280;61877;48.246;9.220;2022-10-14T01:38:10;94333.88;;;10.76;98.69
73600;BME280;61877;48.246;9.220;2022-10-14T01:40:41;94330.78;;;10.74;98.61
73600;BME280;61877;48.246;9.220;2022-10-14T01:43:09;94330.78;;;10.74;98.62
73600;BME280;61877;48.246;9.220;2022-10-14T01:45:41;94329.66;;;10.75;98.38
73600;BME280;61877;48.246;9.220;2022-10-14T01:48:10;94325.41;;;10.74;98.27
73600;BME280;61877;48.246;9.220;2022-10-14T01:50:38;94323.06;;;10.73;98.65
73600;BME280;61877;48.246;9.220;2022-10-14T01:53:10;94319.59;;;10.72;98.47
73600;BME280;61877;48.246;9.220;2022-10-14T01:55:42;94322.28;;;10.72;98.66
73600;BME280;61877;48.246;9.220;2022-10-14T01:58:09;94319.59;;;10.72;98.62
73600;BME280;61877;48.246;9.220;2022-10-14T02:00:38;94324.94;;;10.72;98.47
73600;BME280;61877;48.246;9.220;2022-10-14T02:03:03;94328.09;;;10.74;98.69
73600;BME280;61877;48.246;9.220;2022-10-14T02:05:31;94319.25;;;10.74;98.53
73600;BME280;61877;48.246;9.220;2022-10-14T02:08:04;94318.47;;;10.73;98.47
73600;BME280;61877;48.246;9.220;2022-10-14T02:10:44;94318.78;;;10.72;98.33
73600;BME280;61877;48.246;9.220;2022-10-14T02:13:26;94319.25;;;10.74;98.64
73600;BME280;61877;48.246;9.220;2022-10-14T02:16:04;94309.31;;;10.74;98.75
73600;BME280;61877;48.246;9.220;2022-10-14T02:18:35;94303.81;;;10.71;98.39
73600;BME280;61877;48.246;9.220;2022-10-14T02:21:08;94307.59;;;10.70;98.87
73600;BME280;61877;48.246;9.220;2022-10-14T02:23:38;94313.31;;;10.68;98.90
73600;BME280;61877;48.246;9.220;2022-10-14T02:26:06;94307.16;;;10.68;98.61
73600;BME280;61877;48.246;9.220;2022-10-14T02:28:33;94304.16;;;10.69;99.02
73600;BME280;61877;48.246;9.220;2022-10-14T02:31:03;94307.25;;;10.71;98.86
73600;BME280;61877;48.246;9.220;2022-10-14T02:33:33;94307.25;;;10.71;98.70
73600;BME280;61877;48.246;9.220;2022-10-14T02:36:01;94302.69;;;10.72;98.84
73600;BME280;61877;48.246;9.220;2022-10-14T02:38:29;94301.91;;;10.71;98.93
73600;BME280;61877;48.246;9.220;2022-10-14T02:40:56;94302.34;;;10.73;98.92
73600;BME280;61877;48.246;9.220;2022-10-14T02:43:24;94302.81;;;10.75;98.76
73600;BME280;61877;48.246;9.220;2022-10-14T02:45:55;94297.13;;;10.77;98.89
73600;BME280;61877;48.246;9.220;2022-10-14T02:48:22;94290.94;;;10.76;98.60
73600;BME280;61877;48.246;9.220;2022-10-14T02:50:47;94296.66;;;10.75;98.55
73600;BME280;61877;48.246;9.220;2022-10-14T02:53:15;94295.88;;;10.74;98.68
73600;BME280;61877;48.246;9.220;2022-10-14T02:55:40;94298.13;;;10.72;98.74
73600;BME280;61877;48.246;9.220;2022-10-14T02:58:06;94296.09;;;10.69;98.75
73600;BME280;61877;48.246;9.220;2022-10-14T03:00:31;94289.41;;;10.75;98.41
73600;BME280;61877;48.246;9.220;2022-10-14T03:02:57;94279.22;;;10.69;98.60
73600;BME280;61877;48.246;9.220;2022-10-14T03:05:23;94273.72;;;10.65;99.08
73600;BME280;61877;48.246;9.220;2022-10-14T03:07:49;94268.81;;;10.67;98.84
73600;BME280;61877;48.246;9.220;2022-10-14T03:10:14;94277.66;;;10.68;98.76
73600;BME280;61877;48.246;9.220;2022-10-14T03:12:40;94268.47;;;10.69;98.63
73600;BME280;61877;48.246;9.220;2022-10-14T03:15:06;94267.81;;;10.72;98.79
73600;BME280;61877;48.246;9.220;2022-10-14T03:17:32;94275.06;;;10.71;98.71
73600;BME280;61877;48.246;9.220;2022-10-14T03:19:57;94267.00;;;10.71;98.82
73600;BME280;61877;48.246;9.220;2022-10-14T03:22:24;94266.25;;;10.71;98.89
73600;BME280;61877;48.246;9.220;2022-10-14T03:24:50;94261.66;;;10.71;98.77
73600;BME280;61877;48.246;9.220;2022-10-14T03:27:15;94260.56;;;10.72;98.65
73600;BME280;61877;48.246;9.220;2022-10-14T03:29:41;94266.38;;;10.74;98.66
73600;BME280;61877;48.246;9.220;2022-10-14T03:32:06;94261.00;;;10.74;98.69
73600;BME280;61877;48.246;9.220;2022-10-14T03:34:31;94259.44;;;10.73;98.82
73600;BME280;61877;48.246;9.220;2022-10-14T03:36:57;94255.66;;;10.74;98.64
73600;BME280;61877;48.246;9.220;2022-10-14T03:39:24;94254.84;;;10.74;98.57
73600;BME280;61877;48.246;9.220;2022-10-14T03:41:49;94249.59;;;10.77;97.64
73600;BME280;61877;48.246;9.220;2022-10-14T03:44:14;94253.81;;;10.66;97.80
73600;BME280;61877;48.246;9.220;2022-10-14T03:46:40;94251.38;;;10.61;98.23
73600;BME280;61877;48.246;9.220;2022-10-14T03:49:05;94245.31;;;10.52;97.88
73600;BME280;61877;48.246;9.220;2022-10-14T03:51:31;94248.41;;;10.42;98.17
73600;BME280;61877;48.246;9.220;2022-10-14T03:53:56;94240.47;;;10.33;98.14
73600;BME280;61877;48.246;9.220;2022-10-14T03:56:23;94241.00;;;10.27;98.18
73600;BME280;61877;48.246;9.220;2022-10-14T03:58:48;94241.63;;;10.12;98.10
73600;BME280;61877;48.246;9.220;2022-10-14T04:01:14;94234.41;;;10.04;98.09
73600;BME280;61877;48.246;9.220;2022-10-14T04:03:39;94236.72;;;9.93;98.09
73600;BME280;61877;48.246;9.220;2022-10-14T04:06:04;94233.66;;;9.83;98.36
73600;BME280;61877;48.246;9.220;2022-10-14T04:08:30;94236.75;;;9.73;98.31
73600;BME280;61877;48.246;9.220;2022-10-14T04:10:55;94230.13;;;9.70;98.50
73600;BME280;61877;48.246;9.220;2022-10-14T04:13:22;94230.13;;;9.70;98.82
73600;BME280;61877;48.246;9.220;2022-10-14T04:15:47;94227.38;;;9.79;99.37
73600;BME280;61877;48.246;9.220;2022-10-14T04:18:13;94219.63;;;9.86;99.41
73600;BME280;61877;48.246;9.220;2022-10-14T04:20:38;94217.84;;;9.90;99.33
73600;BME280;61877;48.246;9.220;2022-10-14T04:23:04;94215.41;;;9.97;99.39
73600;BME280;61877;48.246;9.220;2022-10-14T04:25:30;94225.91;;;10.02;99.50
73600;BME280;61877;48.246;9.220;2022-10-14T04:27:55;94224.16;;;10.06;99.06
73600;BME280;61877;48.246;9.220;2022-10-14T04:30:22;94227.31;;;10.08;99.22
73600;BME280;61877;48.246;9.220;2022-10-14T04:32:47;94224.88;;;10.15;99.51
73600;BME280;61877;48.246;9.220;2022-10-14T04:35:13;94220.09;;;10.20;99.43
73600;BME280;61877;48.246;9.220;2022-10-14T04:37:38;94228.72;;;10.26;99.29
73600;BME280;61877;48.246;9.220;2022-10-14T04:40:05;94221.13;;;10.28;99.03
73600;BME280;61877;48.246;9.220;2022-10-14T04:42:32;94217.44;;;10.32;99.31
73600;BME280;61877;48.246;9.220;2022-10-14T04:44:57;94220.69;;;10.38;99.33
73600;BME280;61877;48.246;9.220;2022-10-14T04:47:24;94216.44;;;10.37;98.70
73600;BME280;61877;48.246;9.220;2022-10-14T04:49:49;94214.34;;;10.43;98.77
73600;BME280;61877;48.246;9.220;2022-10-14T04:52:15;94209.31;;;10.41;98.72
73600;BME280;61877;48.246;9.220;2022-10-14T04:54:40;94210.41;;;10.40;98.45
73600;BME280;61877;48.246;9.220;2022-10-14T04:57:05;94201.38;;;10.45;98.64
73600;BME280;61877;48.246;9.220;2022-10-14T04:59:31;94204.72;;;10.41;98.50
73600;BME280;61877;48.246;9.220;2022-10-14T05:01:56;94205.50;;;10.42;98.43
73600;BME280;61877;48.246;9.220;2022-10-14T05:04:23;94201.28;;;10.41;98.59
73600;BME280;61877;48.246;9.220;2022-10-14T05:06:49;94201.69;;;10.43;98.35
73600;BME280;61877;48.246;9.220;2022-10-14T05:09:14;94196.34;;;10.43;98.39
73600;BME280;61877;48.246;9.220;2022-10-14T05:11:40;94193.78;;;10.47;98.49
73600;BME280;61877;48.246;9.220;2022-10-14T05:14:05;94196.03;;;10.45;97.96
73600;BME280;61877;48.246;9.220;2022-10-14T05:16:31;94195.34;;;10.48;98.44
73600;BME280;61877;48.246;9.220;2022-10-14T05:18:56;94183.97;;;10.51;98.74
73600;BME280;61877;48.246;9.220;2022-10-14T05:21:23;94188.19;;;10.52;98.26
73600;BME280;61877;48.246;9.220;2022-10-14T05:23:48;94187.84;;;10.53;98.36
73600;BME280;61877;48.246;9.220;2022-10-14T05:26:14;94170.66;;;10.54;98.45
73600;BME280;61877;48.246;9.220;2022-10-14T05:28:39;94171.13;;;10.56;97.90
73600;BME280;61877;48.246;9.220;2022-10-14T05:31:05;94168.44;;;10.56;97.88
73600;BME280;61877;48.246;9.220;2022-10-14T05:33:30;94170.00;;;10.57;97.96
73600;BME280;61877;48.246;9.220;2022-10-14T05:35:56;94164.63;;;10.57;98.20
73600;BME280;61877;48.246;9.220;2022-10-14T05:38:23;94170.22;;;10.64;98.14
73600;BME280;61877;48.246;9.220;2022-10-14T05:40:52;94173.78;;;10.68;97.73
73600;BME280;61877;48.246;9.220;2022-10-14T05:43:17;94170.44;;;10.71;97.90
73600;BME280;61877;48.246;9.220;2022-10-14T05:45:43;94170.44;;;10.71;97.33
73600;BME280;61877;48.246;9.220;2022-10-14T05:48:08;94155.91;;;10.72;97.91
73600;BME280;61877;48.246;9.220;2022-10-14T05:50:34;94157.56;;;10.77;97.12
73600;BME280;61877;48.246;9.220;2022-10-14T05:52:59;94153.78;;;10.78;97.76
73600;BME280;61877;48.246;9.220;2022-10-14T05:55:26;94151.53;;;10.80;97.64
73600;BME280;61877;48.246;9.220;2022-10-14T05:57:54;94152.44;;;10.84;97.68
73600;BME280;61877;48.246;9.220;2022-10-14T06:00:19;94152.56;;;10.87;97.63
73600;BME280;61877;48.246;9.220;2022-10-14T06:02:45;94156.09;;;10.91;97.42
73600;BME280;61877;48.246;9.220;2022-10-14T06:05:12;94150.97;;;10.98;97.55
73600;BME280;61877;48.246;9.220;2022-10-14T06:07:37;94153.63;;;11.10;97.24
73600;BME280;61877;48.246;9.220;2022-10-14T06:10:03;94143.47;;;11.16;96.76
73600;BME280;61877;48.246;9.220;2022-10-14T06:12:30;94146.66;;;11.21;96.10
73600;BME280;61877;48.246;9.220;2022-10-14T06:14:55;94139.84;;;11.24;95.88
73600;BME280;61877;48.246;9.220;2022-10-14T06:17:21;94149.22;;;11.30;95.94
73600;BME280;61877;48.246;9.220;2022-10-14T06:19:46;94150.03;;;11.30;95.88
73600;BME280;61877;48.246;9.220;2022-10-14T06:22:11;94147.97;;;11.39;95.40
73600;BME280;61877;48.246;9.220;2022-10-14T06:24:37;94142.56;;;11.51;95.25
73600;BME280;61877;48.246;9.220;2022-10-14T06:27:03;94144.56;;;11.54;95.17
73600;BME280;61877;48.246;9.220;2022-10-14T06:29:29;94146.31;;;11.62;95.25
73600;BME280;61877;48.246;9.220;2022-10-14T06:31:55;94150.03;;;11.70;94.74
73600;BME280;61877;48.246;9.220;2022-10-14T06:34:20;94153.34;;;11.79;93.74
73600;BME280;61877;48.246;9.220;2022-10-14T06:36:46;94153.19;;;11.88;94.09
73600;BME280;61877;48.246;9.220;2022-10-14T06:39:11;94152.09;;;11.89;94.12
73600;BME280;61877;48.246;9.220;2022-10-14T06:41:37;94151.16;;;11.97;93.82
73600;BME280;61877;48.246;9.220;2022-10-14T06:44:02;94157.56;;;12.08;93.65
73600;BME280;61877;48.246;9.220;2022-10-14T06:46:30;94153.19;;;12.15;93.18
73600;BME280;61877;48.246;9.220;2022-10-14T06:48:55;94160.91;;;12.32;90.81
73600;BME280;61877;48.246;9.220;2022-10-14T06:51:21;94158.13;;;12.29;91.44
73600;BME280;61877;48.246;9.220;2022-10-14T06:53:46;94152.38;;;12.15;92.17
73600;BME280;61877;48.246;9.220;2022-10-14T06:56:12;94154.81;;;12.20;92.35
73600;BME280;61877;48.246;9.220;2022-10-14T06:58:37;94157.06;;;12.18;92.49
73600;BME280;61877;48.246;9.220;2022-10-14T07:01:03;94157.41;;;12.16;92.88
73600;BME280;61877;48.246;9.220;2022-10-14T07:03:33;94163.50;;;12.13;92.74
73600;BME280;61877;48.246;9.220;2022-10-14T07:06:01;94165.75;;;12.11;92.82
73600;BME280;61877;48.246;9.220;2022-10-14T07:08:27;94168.34;;;12.08;93.30
73600;BME280;61877;48.246;9.220;2022-10-14T07:10:52;94163.06;;;12.11;93.20
73600;BME280;61877;48.246;9.220;2022-10-14T07:13:17;94161.41;;;12.22;92.61
73600;BME280;61877;48.246;9.220;2022-10-14T07:15:46;94162.47;;;12.33;92.63
73600;BME280;61877;48.246;9.220;2022-10-14T07:18:12;94170.56;;;12.33;92.35
73600;BME280;61877;48.246;9.220;2022-10-14T07:20:38;94165.88;;;12.46;91.15
73600;BME280;61877;48.246;9.220;2022-10-14T07:23:04;94166.84;;;12.53;91.34
73600;BME280;61877;48.246;9.220;2022-10-14T07:25:29;94163.53;;;12.60;91.65
73600;BME280;61877;48.246;9.220;2022-10-14T07:27:55;94172.38;;;12.60;91.62
73600;BME280;61877;48.246;9.220;2022-10-14T07:30:20;94164.38;;;12.64;91.22
73600;BME280;61877;48.246;9.220;2022-10-14T07:32:46;94169.00;;;12.79;91.27
73600;BME280;61877;48.246;9.220;2022-10-14T07:35:13;94163.97;;;12.77;90.87
73600;BME280;61877;48.246;9.220;2022-10-14T07:37:40;94169.34;;;12.77;90.74
73600;BME280;61877;48.246;9.220;2022-10-14T07:40:07;94165.44;;;12.75;90.91
73600;BME280;61877;48.246;9.220;2022-10-14T07:42:33;94157.13;;;12.80;90.33
73600;BME280;61877;48.246;9.220;2022-10-14T07:44:58;94156.50;;;12.86;90.64
73600;BME280;61877;48.246;9.220;2022-10-14T07:47:24;94151.50;;;12.88;89.89
73600;BME280;61877;48.246;9.220;2022-10-14T07:49:51;94148.91;;;12.92;89.73
73600;BME280;61877;48.246;9.220;2022-10-14T07:52:17;94154.66;;;13.06;88.49
73600;BME280;61877;48.246;9.220;2022-10-14T07:54:44;94160.09;;;13.25;87.91
73600;BME280;61877;48.246;9.220;2022-10-14T07:57:10;94169.47;;;13.31;88.54
73600;BME280;61877;48.246;9.220;2022-10-14T07:59:35;94165.75;;;13.20;88.27
73600;BME280;61877;48.246;9.220;2022-10-14T08:02:01;94163.91;;;13.24;87.71
73600;BME280;61877;48.246;9.220;2022-10-14T08:04:27;94161.22;;;13.24;88.17
73600;BME280;61877;48.246;9.220;2022-10-14T08:06:53;94166.50;;;13.36;88.12
73600;BME280;61877;48.246;9.220;2022-10-14T08:09:18;94168.59;;;13.27;86.71
73600;BME280;61877;48.246;9.220;2022-10-14T08:11:45;94166.34;;;13.29;87.42
73600;BME280;61877;48.246;9.220;2022-10-14T08:14:11;94167.22;;;13.52;88.11
73600;BME280;61877;48.246;9.220;2022-10-14T08:16:37;94160.13;;;13.63;87.40
73600;BME280;61877;48.246;9.220;2022-10-14T08:19:05;94167.50;;;13.66;86.39
73600;BME280;61877;48.246;9.220;2022-10-14T08:21:32;94167.53;;;13.85;86.10
73600;BME280;61877;48.246;9.220;2022-10-14T08:23:58;94165.06;;;13.96;86.03
73600;BME280;61877;48.246;9.220;2022-10-14T08:26:27;94169.88;;;14.25;85.42
73600;BME280;61877;48.246;9.220;2022-10-14T08:28:54;94172.03;;;14.39;84.17
73600;BME280;61877;48.246;9.220;2022-10-14T08:31:20;94174.44;;;14.44;83.28
73600;BME280;61877;48.246;9.220;2022-10-14T08:33:46;94169.34;;;14.39;83.75
73600;BME280;61877;48.246;9.220;2022-10-14T08:36:11;94168.16;;;14.59;81.98
73600;BME280;61877;48.246;9.220;2022-10-14T08:38:37;94171.09;;;14.73;81.04
73600;BME280;61877;48.246;9.220;2022-10-14T08:41:08;94163.66;;;14.66;82.10
73600;BME280;61877;48.246;9.220;2022-10-14T08:43:40;94162.63;;;14.74;81.17
73600;BME280;61877;48.246;9.220;2022-10-14T08:46:19;94159.47;;;14.69;80.16
73600;BME280;61877;48.246;9.220;2022-10-14T08:48:49;94162.63;;;14.74;81.80
73600;BME280;61877;48.246;9.220;2022-10-14T08:51:17;94164.97;;;14.76;82.02
73600;BME280;61877;48.246;9.220;2022-10-14T08:53:45;94153.72;;;14.96;80.30
73600;BME280;61877;48.246;9.220;2022-10-14T08:56:13;94152.25;;;15.02;81.13
73600;BME280;61877;48.246;9.220;2022-10-14T08:58:41;94145.44;;;15.08;79.86
73600;BME280;61877;48.246;9.220;2022-10-14T09:01:14;94159.56;;;14.98;80.32
73600;BME280;61877;48.246;9.220;2022-10-14T09:03:43;94161.63;;;15.08;80.03
73600;BME280;61877;48.246;9.220;2022-10-14T09:06:22;94160.97;;;15.15;79.12
73600;BME280;61877;48.246;9.220;2022-10-14T09:08:49;94153.59;;;15.12;79.88
73600;BME280;61877;48.246;9.220;2022-10-14T09:14:20;94154.53;;;15.49;79.88
73600;BME280;61877;48.246;9.220;2022-10-14T09:16:50;94146.50;;;15.30;79.60
73600;BME280;61877;48.246;9.220;2022-10-14T09:19:25;94149.25;;;15.60;78.68
73600;BME280;61877;48.246;9.220;2022-10-14T09:21:55;94143.38;;;15.54;78.27
73600;BME280;61877;48.246;9.220;2022-10-14T09:24:24;94149.44;;;15.44;78.84
73600;BME280;61877;48.246;9.220;2022-10-14T09:26:52;94141.00;;;15.49;78.16
73600;BME280;61877;48.246;9.220;2022-10-14T09:29:23;94139.94;;;15.54;77.19
73600;BME280;61877;48.246;9.220;2022-10-14T09:31:52;94135.63;;;15.82;76.51
73600;BME280;61877;48.246;9.220;2022-10-14T09:34:27;94133.44;;;15.91;77.12
73600;BME280;61877;48.246;9.220;2022-10-14T09:36:53;94127.66;;;16.29;75.94
73600;BME280;61877;48.246;9.220;2022-10-14T09:39:21;94126.31;;;16.46;75.86
73600;BME280;61877;48.246;9.220;2022-10-14T09:41:51;94120.53;;;16.47;75.01
73600;BME280;61877;48.246;9.220;2022-10-14T09:44:19;94128.06;;;16.71;73.23
73600;BME280;61877;48.246;9.220;2022-10-14T09:46:47;94121.25;;;16.85;73.07
73600;BME280;61877;48.246;9.220;2022-10-14T09:49:17;94120.59;;;17.56;69.23
73600;BME280;61877;48.246;9.220;2022-10-14T09:51:45;94118.59;;;17.53;70.07
73600;BME280;61877;48.246;9.220;2022-10-14T09:54:21;94115.38;;;17.33;71.48
73600;BME280;61877;48.246;9.220;2022-10-14T09:56:47;94115.25;;;17.12;69.84
73600;BME280;61877;48.246;9.220;2022-10-14T09:59:15;94121.72;;;16.97;70.72
73600;BME280;61877;48.246;9.220;2022-10-14T10:01:49;94113.22;;;16.55;70.96
73600;BME280;61877;48.246;9.220;2022-10-14T10:04:34;94113.94;;;15.79;74.02
73600;BME280;61877;48.246;9.220;2022-10-14T10:07:22;94113.41;;;15.99;74.34
73600;BME280;61877;48.246;9.220;2022-10-14T10:09:53;94114.97;;;15.67;73.96
73600;BME280;61877;48.246;9.220;2022-10-14T10:12:22;94109.97;;;15.69;76.24
73600;BME280;61877;48.246;9.220;2022-10-14T10:14:54;94116.88;;;15.37;74.43
73600;BME280;61877;48.246;9.220;2022-10-14T10:17:21;94111.94;;;15.42;76.13
73600;BME280;61877;48.246;9.220;2022-10-14T10:20:05;94107.84;;;15.26;76.21
73600;BME280;61877;48.246;9.220;2022-10-14T10:22:31;94102.19;;;15.08;76.17
73600;BME280;61877;48.246;9.220;2022-10-14T10:25:17;94104.38;;;14.99;77.10
73600;BME280;61877;48.246;9.220;2022-10-14T10:27:44;94106.03;;;15.07;78.59
73600;BME280;61877;48.246;9.220;2022-10-14T10:30:20;94109.88;;;15.06;81.53
73600;BME280;61877;48.246;9.220;2022-10-14T10:32:49;94111.22;;;14.93;81.16
73600;BME280;61877;48.246;9.220;2022-10-14T10:35:23;94110.25;;;14.79;80.75
73600;BME280;61877;48.246;9.220;2022-10-14T10:37:57;94111.47;;;14.85;79.31
73600;BME280;61877;48.246;9.220;2022-10-14T10:40:31;94108.59;;;14.74;79.96
73600;BME280;61877;48.246;9.220;2022-10-14T10:43:21;94106.06;;;14.59;81.30
73600;BME280;61877;48.246;9.220;2022-10-14T10:46:04;94102.44;;;14.74;80.92
73600;BME280;61877;48.246;9.220;2022-10-14T10:51:44;94083.53;;;14.74;80.04
73600;BME280;61877;48.246;9.220;2022-10-14T10:54:21;94086.44;;;14.62;79.01
73600;BME280;61877;48.246;9.220;2022-10-14T10:56:52;94085.47;;;14.73;78.56
73600;BME280;61877;48.246;9.220;2022-10-14T10:59:34;94086.31;;;14.55;79.73
73600;BME280;61877;48.246;9.220;2022-10-14T11:02:43;94080.34;;;14.42;78.35
73600;BME280;61877;48.246;9.220;2022-10-14T11:05:17;94075.81;;;14.50;80.32
73600;BME280;61877;48.246;9.220;2022-10-14T11:07:52;94075.00;;;14.46;80.44
73600;BME280;61877;48.246;9.220;2022-10-14T11:10:23;94076.31;;;14.55;80.93
73600;BME280;61877;48.246;9.220;2022-10-14T11:12:57;94073.13;;;14.50;81.37
73600;BME280;61877;48.246;9.220;2022-10-14T11:15:39;94066.25;;;14.30;82.31
73600;BME280;61877;48.246;9.220;2022-10-14T11:18:12;94071.63;;;14.52;81.29
73600;BME280;61877;48.246;9.220;2022-10-14T11:20:45;94062.81;;;14.55;80.79
73600;BME280;61877;48.246;9.220;2022-10-14T11:23:44;94056.75;;;14.62;81.96
73600;BME280;61877;48.246;9.220;2022-10-14T11:26:22;94060.28;;;14.66;81.00
73600;BME280;61877;48.246;9.220;2022-10-14T11:28:54;94051.81;;;14.67;80.96
73600;BME280;61877;48.246;9.220;2022-10-14T11:31:30;94052.25;;;14.73;81.37
73600;BME280;61877;48.246;9.220;2022-10-14T11:34:17;94056.75;;;14.62;80.91
73600;BME280;61877;48.246;9.220;2022-10-14T11:36:53;94045.94;;;14.62;80.25
73600;BME280;61877;48.246;9.220;2022-10-14T11:39:33;94047.59;;;14.70;80.65
73600;BME280;61877;48.246;9.220;2022-10-14T11:42:10;94045.75;;;14.74;79.58
73600;BME280;61877;48.246;9.220;2022-10-14T11:44:41;94041.53;;;14.76;78.55
73600;BME280;61877;48.246;9.220;2022-10-14T11:47:11;94041.03;;;14.71;79.37
73600;BME280;61877;48.246;9.220;2022-10-14T11:49:43;94043.34;;;14.95;79.25
73600;BME280;61877;48.246;9.220;2022-10-14T11:52:16;94025.81;;;15.11;78.04
73600;BME280;61877;48.246;9.220;2022-10-14T11:54:47;94025.19;;;15.55;78.33
73600;BME280;61877;48.246;9.220;2022-10-14T11:57:23;94021.75;;;15.58;78.12
73600;BME280;61877;48.246;9.220;2022-10-14T11:59:55;94019.41;;;15.56;76.89
73600;BME280;61877;48.246;9.220;2022-10-14T12:02:32;94021.22;;;15.78;77.10
73600;BME280;61877;48.246;9.220;2022-10-14T12:05:05;94028.53;;;15.78;76.36
73600;BME280;61877;48.246;9.220;2022-10-14T12:07:37;94031.31;;;15.48;75.89
73600;BME280;61877;48.246;9.220;2022-10-14T12:10:14;94038.03;;;15.02;78.24
73600;BME280;61877;48.246;9.220;2022-10-14T12:12:44;94037.41;;;14.86;79.45
73600;BME280;61877;48.246;9.220;2022-10-14T12:15:15;94036.16;;;14.80;80.23
73600;BME280;61877;48.246;9.220;2022-10-14T12:17:45;94036.75;;;14.66;80.20
73600;BME280;61877;48.246;9.220;2022-10-14T12:20:24;94034.47;;;14.68;80.42
73600;BME280;61877;48.246;9.220;2022-10-14T12:22:53;94022.00;;;14.60;81.62
73600;BME280;61877;48.246;9.220;2022-10-14T12:25:24;94020.59;;;14.70;80.75
73600;BME280;61877;48.246;9.220;2022-10-14T12:27:51;94002.59;;;14.77;81.21
73600;BME280;61877;48.246;9.220;2022-10-14T12:30:32;93997.09;;;15.00;78.82
73600;BME280;61877;48.246;9.220;2022-10-14T12:32:59;93994.88;;;15.09;78.23
73600;BME280;61877;48.246;9.220;2022-10-14T12:35:50;93986.09;;;15.15;78.55
73600;BME280;61877;48.246;9.220;2022-10-14T12:38:16;93987.88;;;15.37;79.06
73600;BME280;61877;48.246;9.220;2022-10-14T12:40:44;93984.69;;;15.58;77.03
73600;BME280;61877;48.246;9.220;2022-10-14T12:43:15;93985.34;;;15.85;75.13
73600;BME280;61877;48.246;9.220;2022-10-14T12:45:55;93986.81;;;15.79;77.05
73600;BME280;61877;48.246;9.220;2022-10-14T12:48:30;93986.13;;;15.89;75.73
73600;BME280;61877;48.246;9.220;2022-10-14T12:51:06;93978.28;;;16.20;76.22
73600;BME280;61877;48.246;9.220;2022-10-14T12:53:33;93973.41;;;16.36;74.18
73600;BME280;61877;48.246;9.220;2022-10-14T12:56:02;93971.44;;;16.30;74.72
73600;BME280;61877;48.246;9.220;2022-10-14T12:58:31;93958.16;;;16.14;74.32
73600;BME280;61877;48.246;9.220;2022-10-14T13:01:00;93963.19;;;16.16;76.09
73600;BME280;61877;48.246;9.220;2022-10-14T13:03:30;93966.38;;;15.81;76.53
73600;BME280;61877;48.246;9.220;2022-10-14T13:06:25;93967.66;;;15.58;76.92
73600;BME280;61877;48.246;9.220;2022-10-14T13:12:40;93960.78;;;15.30;78.13
73600;BME280;61877;48.246;9.220;2022-10-14T13:15:46;93959.59;;;15.28;78.81
73600;BME280;61877;48.246;9.220;2022-10-14T13:18:32;93969.53;;;15.17;78.61
73600;BME280;61877;48.246;9.220;2022-10-14T13:20:58;93964.41;;;15.08;79.30
73600;BME280;61877;48.246;9.220;2022-10-14T13:23:31;93959.47;;;15.17;79.20